sensor_id;sensor_type;location;lat;lon;timestamp;temperature;humidity
38860;DHT22;24609;48.316;16.174;2023-01-23T00:01:17;0.60;99.90
38860;DHT22;24609;48.316;16.174;2023-01-23T00:03:43;0.60;99.90
38860;DHT22;24609;48.316;16.174;2023-01-23T00:06:14;0.60;99.90
38860;DHT22;24609;48.316;16.174;2023-01-23T00:08:41;0.60;99.90
38860;DHT22;24609;48.316;16.174;2023-01-23T00:11:14;0.60;99.90
38860;DHT22;24609;48.316;16.174;2023-01-23T00:13:39;0.60;99.90
38860;DHT22;24609;48.316;16.174;2023-01-23T00:16:06;0.50;99.90
38860;DHT22;24609;48.316;16.174;2023-01-23T00:18:32;0.50;99.90
38860;DHT22;24609;48.316;16.174;2023-01-23T00:21:02;0.60;99.90
38860;DHT22;24609;48.316;16.174;2023-01-23T00:23:28;0.60;99.90
38860;DHT22;24609;48.316;16.174;2023-01-23T00:25:53;0.60;99.90
38860;DHT22;24609;48.316;16.174;2023-01-23T00:28:19;0.60;99.90
38860;DHT22;24609;48.316;16.174;2023-01-23T00:30:45;0.70;99.90
38860;DHT22;24609;48.316;16.174;2023-01-23T00:33:10;0.80;99.90
38860;DHT22;24609;48.316;16.174;2023-01-23T00:35:36;0.70;99.90
38860;DHT22;24609;48.316;16.174;2023-01-23T00:38:01;0.70;99.90
38860;DHT22;24609;48.316;16.174;2023-01-23T00:40:27;0.60;99.90
38860;DHT22;24609;48.316;16.174;2023-01-23T00:42:53;0.60;99.90
38860;DHT22;24609;48.316;16.174;2023-01-23T00:45:18;0.60;99.90
38860;DHT22;24609;48.316;16.174;2023-01-23T00:47:44;0.60;99.90
38860;DHT22;24609;48.316;16.174;2023-01-23T00:50:10;0.60;99.90
38860;DHT22;24609;48.316;16.174;2023-01-23T00:52:36;0.60;99.90
38860;DHT22;24609;48.316;16.174;2023-01-23T00:55:02;0.60;99.90
38860;DHT22;24609;48.316;16.174;2023-01-23T00:57:29;0.60;99.90
38860;DHT22;24609;48.316;16.174;2023-01-23T00:59:54;0.60;99.90
38860;DHT22;24609;48.316;16.174;2023-01-23T01:02:20;0.60;99.90
38860;DHT22;24609;48.316;16.174;2023-01-23T01:04:46;0.60;99.90
38860;DHT22;24609;48.316;16.174;2023-01-23T01:07:11;0.60;99.90
38860;DHT22;24609;48.316;16.174;2023-01-23T01:09:37;0.50;99.90
38860;DHT22;24609;48.316;16.174;2023-01-23T01:12:03;0.50;99.90
38860;DHT22;24609;48.316;16.174;2023-01-23T01:14:28;0.50;99.90
38860;DHT22;24609;48.316;16.174;2023-01-23T01:16:54;0.50;99.90
38860;DHT22;24609;48.316;16.174;2023-01-23T01:19:20;0.60;99.90
38860;DHT22;24609;48.316;16.174;2023-01-23T01:21:46;0.60;99.90
38860;DHT22;24609;48.316;16.174;2023-01-23T01:24:12;0.60;99.90
38860;DHT22;24609;48.316;16.174;2023-01-23T01:26:37;0.70;99.90
38860;DHT22;24609;48.316;16.174;2023-01-23T01:29:04;0.70;99.90
38860;DHT22;24609;48.316;16.174;2023-01-23T01:31:30;0.70;99.90
38860;DHT22;24609;48.316;16.174;2023-01-23T01:33:55;0.70;99.90
38860;DHT22;24609;48.316;16.174;2023-01-23T01:36:22;0.70;99.90
38860;DHT22;24609;48.316;16.174;2023-01-23T01:38:48;0.80;99.90
38860;DHT22;24609;48.316;16.174;2023-01-23T01:41:15;0.80;99.90
38860;DHT22;24609;48.316;16.174;2023-01-23T01:43:42;0.80;99.90
38860;DHT22;24609;48.316;16.174;2023-01-23T01:51:38;0.80;99.90
38860;DHT22;24609;48.316;16.174;2023-01-23T01:54:10;0.80;99.90
38860;DHT22;24609;48.316;16.174;2023-01-23T01:59:15;0.90;99.90
38860;DHT22;24609;48.316;16.174;2023-01-23T02:01:44;0.90;99.90
38860;DHT22;24609;48.316;16.174;2023-01-23T02:04:11;0.90;99.90
38860;DHT22;24609;48.316;16.174;2023-01-23T02:06:38;0.90;99.90
38860;DHT22;24609;48.316;16.174;2023-01-23T02:09:11;0.90;99.90
38860;DHT22;24609;48.316;16.174;2023-01-23T02:11:39;0.80;99.90
38860;DHT22;24609;48.316;16.174;2023-01-23T02:14:05;0.80;99.90
38860;DHT22;24609;48.316;16.174;2023-01-23T02:16:34;0.70;99.90
38860;DHT22;24609;48.316;16.174;2023-01-23T02:19:17;0.70;99.90
38860;DHT22;24609;48.316;16.174;2023-01-23T02:21:48;0.80;99.90
38860;DHT22;24609;48.316;16.174;2023-01-23T02:24:38;0.70;99.90
38860;DHT22;24609;48.316;16.174;2023-01-23T02:27:05;0.70;99.90
38860;DHT22;24609;48.316;16.174;2023-01-23T02:29:44;0.70;99.90
38860;DHT22;24609;48.316;16.174;2023-01-23T02:32:10;0.70;99.90
38860;DHT22;24609;48.316;16.174;2023-01-23T02:34:36;0.70;99.90
38860;DHT22;24609;48.316;16.174;2023-01-23T02:37:04;0.70;99.90
38860;DHT22;24609;48.316;16.174;2023-01-23T02:39:30;0.70;99.90
38860;DHT22;24609;48.316;16.174;2023-01-23T02:41:57;0.70;99.90
38860;DHT22;24609;48.316;16.174;2023-01-23T02:44:29;0.70;99.90
38860;DHT22;24609;48.316;16.174;2023-01-23T02:47:00;0.70;99.90
38860;DHT22;24609;48.316;16.174;2023-01-23T02:49:26;0.70;99.90
38860;DHT22;24609;48.316;16.174;2023-01-23T02:51:53;0.70;99.90
38860;DHT22;24609;48.316;16.174;2023-01-23T02:54:20;0.70;99.90
38860;DHT22;24609;48.316;16.174;2023-01-23T02:56:46;0.80;99.90
38860;DHT22;24609;48.316;16.174;2023-01-23T02:59:12;0.80;99.90
38860;DHT22;24609;48.316;16.174;2023-01-23T03:01:57;0.90;99.90
38860;DHT22;24609;48.316;16.174;2023-01-23T03:04:22;0.80;99.90
38860;DHT22;24609;48.316;16.174;2023-01-23T03:06:48;0.80;99.90
38860;DHT22;24609;48.316;16.174;2023-01-23T03:09:16;0.90;99.90
38860;DHT22;24609;48.316;16.174;2023-01-23T03:11:43;0.90;99.90
38860;DHT22;24609;48.316;16.174;2023-01-23T03:14:15;0.80;99.90
38860;DHT22;24609;48.316;16.174;2023-01-23T03:16:42;0.80;99.90
38860;DHT22;24609;48.316;16.174;2023-01-23T03:19:09;0.80;99.90
38860;DHT22;24609;48.316;16.174;2023-01-23T03:21:37;0.80;99.90
38860;DHT22;24609;48.316;16.174;2023-01-23T03:24:08;0.80;99.90
38860;DHT22;24609;48.316;16.174;2023-01-23T03:26:36;0.80;99.90
38860;DHT22;24609;48.316;16.174;2023-01-23T03:29:02;0.80;99.90
38860;DHT22;24609;48.316;16.174;2023-01-23T03:31:46;0.80;99.90
38860;DHT22;24609;48.316;16.174;2023-01-23T03:34:12;0.80;99.90
38860;DHT22;24609;48.316;16.174;2023-01-23T03:36:37;0.80;99.90
38860;DHT22;24609;48.316;16.174;2023-01-23T03:39:05;0.90;99.90
38860;DHT22;24609;48.316;16.174;2023-01-23T03:41:50;0.90;99.90
38860;DHT22;24609;48.316;16.174;2023-01-23T03:44:16;0.90;99.90
38860;DHT22;24609;48.316;16.174;2023-01-23T03:46:44;1.00;99.90
38860;DHT22;24609;48.316;16.174;2023-01-23T03:49:09;1.00;99.90
38860;DHT22;24609;48.316;16.174;2023-01-23T03:51:35;1.10;99.90
38860;DHT22;24609;48.316;16.174;2023-01-23T03:54:01;1.10;99.90
38860;DHT22;24609;48.316;16.174;2023-01-23T03:56:27;1.10;99.90
38860;DHT22;24609;48.316;16.174;2023-01-23T03:58:52;1.20;99.90
38860;DHT22;24609;48.316;16.174;2023-01-23T04:01:18;1.20;99.90
38860;DHT22;24609;48.316;16.174;2023-01-23T04:03:44;1.10;99.90
38860;DHT22;24609;48.316;16.174;2023-01-23T04:06:10;1.10;99.90
38860;DHT22;24609;48.316;16.174;2023-01-23T04:08:35;1.00;99.90
38860;DHT22;24609;48.316;16.174;2023-01-23T04:11:06;1.00;99.90
38860;DHT22;24609;48.316;16.174;2023-01-23T04:13:31;0.90;99.90
38860;DHT22;24609;48.316;16.174;2023-01-23T04:15:58;0.90;99.90
38860;DHT22;24609;48.316;16.174;2023-01-23T04:18:24;0.90;99.90
38860;DHT22;24609;48.316;16.174;2023-01-23T04:20:50;0.90;99.90
38860;DHT22;24609;48.316;16.174;2023-01-23T04:23:15;1.00;99.90
38860;DHT22;24609;48.316;16.174;2023-01-23T04:25:41;1.00;99.90
38860;DHT22;24609;48.316;16.174;2023-01-23T04:28:07;1.00;99.90
38860;DHT22;24609;48.316;16.174;2023-01-23T04:30:32;1.10;99.90
38860;DHT22;24609;48.316;16.174;2023-01-23T04:32:58;1.10;99.90
38860;DHT22;24609;48.316;16.174;2023-01-23T04:35:25;1.10;99.90
38860;DHT22;24609;48.316;16.174;2023-01-23T04:37:50;1.10;99.90
38860;DHT22;24609;48.316;16.174;2023-01-23T04:40:17;1.00;99.90
38860;DHT22;24609;48.316;16.174;2023-01-23T04:42:43;1.00;99.90
38860;DHT22;24609;48.316;16.174;2023-01-23T04:45:08;1.10;99.90
38860;DHT22;24609;48.316;16.174;2023-01-23T04:47:35;1.10;99.90
38860;DHT22;24609;48.316;16.174;2023-01-23T04:50:01;1.20;99.90
38860;DHT22;24609;48.316;16.174;2023-01-23T04:52:27;1.20;99.90
38860;DHT22;24609;48.316;16.174;2023-01-23T04:54:53;1.20;99.90
38860;DHT22;24609;48.316;16.174;2023-01-23T04:57:19;1.30;99.90
38860;DHT22;24609;48.316;16.174;2023-01-23T04:59:44;1.30;99.90
38860;DHT22;24609;48.316;16.174;2023-01-23T05:02:10;1.30;99.90
38860;DHT22;24609;48.316;16.174;2023-01-23T05:04:36;1.30;99.90
38860;DHT22;24609;48.316;16.174;2023-01-23T05:07:02;1.30;99.90
38860;DHT22;24609;48.316;16.174;2023-01-23T05:09:28;1.40;99.90
38860;DHT22;24609;48.316;16.174;2023-01-23T05:11:53;1.40;99.90
38860;DHT22;24609;48.316;16.174;2023-01-23T05:14:19;1.30;99.90
38860;DHT22;24609;48.316;16.174;2023-01-23T05:16:46;1.30;99.90
38860;DHT22;24609;48.316;16.174;2023-01-23T05:19:12;1.30;99.90
38860;DHT22;24609;48.316;16.174;2023-01-23T05:21:38;1.30;99.90
38860;DHT22;24609;48.316;16.174;2023-01-23T05:24:04;1.20;99.90
38860;DHT22;24609;48.316;16.174;2023-01-23T05:26:29;1.20;99.90
38860;DHT22;24609;48.316;16.174;2023-01-23T05:28:55;1.20;99.90
38860;DHT22;24609;48.316;16.174;2023-01-23T05:31:21;1.30;99.90
38860;DHT22;24609;48.316;16.174;2023-01-23T05:33:46;1.20;99.90
38860;DHT22;24609;48.316;16.174;2023-01-23T05:36:12;1.30;99.90
38860;DHT22;24609;48.316;16.174;2023-01-23T05:38:38;1.20;99.90
38860;DHT22;24609;48.316;16.174;2023-01-23T05:41:04;1.20;99.90
38860;DHT22;24609;48.316;16.174;2023-01-23T05:43:30;1.20;99.90
38860;DHT22;24609;48.316;16.174;2023-01-23T05:45:58;1.20;99.90
38860;DHT22;24609;48.316;16.174;2023-01-23T05:48:25;1.20;99.90
38860;DHT22;24609;48.316;16.174;2023-01-23T05:50:51;1.20;99.90
38860;DHT22;24609;48.316;16.174;2023-01-23T05:53:16;1.20;99.90
38860;DHT22;24609;48.316;16.174;2023-01-23T05:55:42;1.20;99.90
38860;DHT22;24609;48.316;16.174;2023-01-23T05:58:07;1.20;99.90
38860;DHT22;24609;48.316;16.174;2023-01-23T06:00:33;1.20;99.90
38860;DHT22;24609;48.316;16.174;2023-01-23T06:02:59;1.20;99.90
38860;DHT22;24609;48.316;16.174;2023-01-23T06:05:26;1.20;99.90
38860;DHT22;24609;48.316;16.174;2023-01-23T06:07:51;1.20;99.90
38860;DHT22;24609;48.316;16.174;2023-01-23T06:10:17;1.30;99.90
38860;DHT22;24609;48.316;16.174;2023-01-23T06:12:43;1.30;99.90
38860;DHT22;24609;48.316;16.174;2023-01-23T06:15:09;1.30;99.90
38860;DHT22;24609;48.316;16.174;2023-01-23T06:17:35;1.30;99.90
38860;DHT22;24609;48.316;16.174;2023-01-23T06:20:01;1.30;99.90
38860;DHT22;24609;48.316;16.174;2023-01-23T06:22:27;1.40;99.90
38860;DHT22;24609;48.316;16.174;2023-01-23T06:24:53;1.40;99.90
38860;DHT22;24609;48.316;16.174;2023-01-23T06:27:18;1.30;99.90
38860;DHT22;24609;48.316;16.174;2023-01-23T06:29:44;1.30;99.90
38860;DHT22;24609;48.316;16.174;2023-01-23T06:32:10;1.30;99.90
38860;DHT22;24609;48.316;16.174;2023-01-23T06:34:35;1.30;99.90
38860;DHT22;24609;48.316;16.174;2023-01-23T06:37:01;1.30;99.90
38860;DHT22;24609;48.316;16.174;2023-01-23T06:39:27;1.30;99.90
38860;DHT22;24609;48.316;16.174;2023-01-23T06:41:55;1.30;99.90
38860;DHT22;24609;48.316;16.174;2023-01-23T06:44:21;1.30;99.90
38860;DHT22;24609;48.316;16.174;2023-01-23T06:46:47;1.30;99.90
38860;DHT22;24609;48.316;16.174;2023-01-23T06:49:13;1.30;99.90
38860;DHT22;24609;48.316;16.174;2023-01-23T06:51:38;1.30;99.90
38860;DHT22;24609;48.316;16.174;2023-01-23T06:54:04;1.40;99.90
38860;DHT22;24609;48.316;16.174;2023-01-23T06:56:30;1.40;99.90
38860;DHT22;24609;48.316;16.174;2023-01-23T06:58:56;1.40;99.90
38860;DHT22;24609;48.316;16.174;2023-01-23T07:01:22;1.40;99.90
38860;DHT22;24609;48.316;16.174;2023-01-23T07:03:50;1.50;99.90
38860;DHT22;24609;48.316;16.174;2023-01-23T07:06:16;1.50;99.90
38860;DHT22;24609;48.316;16.174;2023-01-23T07:08:42;1.50;99.90
38860;DHT22;24609;48.316;16.174;2023-01-23T07:11:08;1.50;99.90
38860;DHT22;24609;48.316;16.174;2023-01-23T07:13:34;1.50;99.90
38860;DHT22;24609;48.316;16.174;2023-01-23T07:16:00;1.50;99.90
38860;DHT22;24609;48.316;16.174;2023-01-23T07:18:26;1.50;99.90
38860;DHT22;24609;48.316;16.174;2023-01-23T07:20:53;1.50;99.90
38860;DHT22;24609;48.316;16.174;2023-01-23T07:23:20;1.50;99.90
38860;DHT22;24609;48.316;16.174;2023-01-23T07:25:46;1.60;99.90
38860;DHT22;24609;48.316;16.174;2023-01-23T07:28:11;1.50;99.90
38860;DHT22;24609;48.316;16.174;2023-01-23T07:30:37;1.50;99.90
38860;DHT22;24609;48.316;16.174;2023-01-23T07:33:03;1.60;99.90
38860;DHT22;24609;48.316;16.174;2023-01-23T07:35:29;1.60;99.90
38860;DHT22;24609;48.316;16.174;2023-01-23T07:37:55;1.60;99.90
38860;DHT22;24609;48.316;16.174;2023-01-23T07:40:21;1.60;99.90
38860;DHT22;24609;48.316;16.174;2023-01-23T07:42:47;1.70;99.90
38860;DHT22;24609;48.316;16.174;2023-01-23T07:45:13;1.70;99.90
38860;DHT22;24609;48.316;16.174;2023-01-23T07:47:39;1.70;99.90
38860;DHT22;24609;48.316;16.174;2023-01-23T07:50:12;1.80;99.90
38860;DHT22;24609;48.316;16.174;2023-01-23T07:52:38;1.70;99.90
38860;DHT22;24609;48.316;16.174;2023-01-23T07:55:05;1.80;99.90
38860;DHT22;24609;48.316;16.174;2023-01-23T07:57:30;1.80;99.90
38860;DHT22;24609;48.316;16.174;2023-01-23T07:59:58;1.90;99.90
38860;DHT22;24609;48.316;16.174;2023-01-23T08:02:24;1.90;99.90
38860;DHT22;24609;48.316;16.174;2023-01-23T08:04:49;1.90;99.90
38860;DHT22;24609;48.316;16.174;2023-01-23T08:07:15;2.00;99.90
38860;DHT22;24609;48.316;16.174;2023-01-23T08:09:41;2.00;99.90
38860;DHT22;24609;48.316;16.174;2023-01-23T08:12:06;2.00;99.90
38860;DHT22;24609;48.316;16.174;2023-01-23T08:14:32;2.00;99.90
38860;DHT22;24609;48.316;16.174;2023-01-23T08:16:58;2.00;99.90
38860;DHT22;24609;48.316;16.174;2023-01-23T08:19:24;2.10;99.90
38860;DHT22;24609;48.316;16.174;2023-01-23T08:21:51;2.00;99.90
38860;DHT22;24609;48.316;16.174;2023-01-23T08:24:17;2.00;99.90
38860;DHT22;24609;48.316;16.174;2023-01-23T08:26:43;2.00;99.90
38860;DHT22;24609;48.316;16.174;2023-01-23T08:29:08;2.10;99.90
38860;DHT22;24609;48.316;16.174;2023-01-23T08:31:35;2.20;99.90
38860;DHT22;24609;48.316;16.174;2023-01-23T08:34:01;2.30;99.90
38860;DHT22;24609;48.316;16.174;2023-01-23T08:36:27;2.40;99.90
38860;DHT22;24609;48.316;16.174;2023-01-23T08:38:53;2.30;99.90
38860;DHT22;24609;48.316;16.174;2023-01-23T08:41:18;2.30;99.90
38860;DHT22;24609;48.316;16.174;2023-01-23T08:43:44;2.30;99.90
38860;DHT22;24609;48.316;16.174;2023-01-23T08:46:10;2.40;99.90
38860;DHT22;24609;48.316;16.174;2023-01-23T08:48:36;2.50;99.90
38860;DHT22;24609;48.316;16.174;2023-01-23T08:51:05;2.50;99.90
38860;DHT22;24609;48.316;16.174;2023-01-23T08:53:31;2.50;99.90
38860;DHT22;24609;48.316;16.174;2023-01-23T08:56:17;2.50;99.90
38860;DHT22;24609;48.316;16.174;2023-01-23T08:58:44;2.40;99.90
38860;DHT22;24609;48.316;16.174;2023-01-23T09:01:20;2.40;99.90
38860;DHT22;24609;48.316;16.174;2023-01-23T09:03:46;2.30;99.90
38860;DHT22;24609;48.316;16.174;2023-01-23T09:06:16;2.20;99.90
38860;DHT22;24609;48.316;16.174;2023-01-23T09:08:43;2.20;99.90
38860;DHT22;24609;48.316;16.174;2023-01-23T09:11:11;2.20;99.90
38860;DHT22;24609;48.316;16.174;2023-01-23T09:13:37;2.30;99.90
38860;DHT22;24609;48.316;16.174;2023-01-23T09:16:03;2.30;99.90
38860;DHT22;24609;48.316;16.174;2023-01-23T09:18:29;2.30;99.90
38860;DHT22;24609;48.316;16.174;2023-01-23T09:20:55;2.40;99.90
38860;DHT22;24609;48.316;16.174;2023-01-23T09:23:22;2.40;99.90
38860;DHT22;24609;48.316;16.174;2023-01-23T09:25:48;2.40;99.90
38860;DHT22;24609;48.316;16.174;2023-01-23T09:28:13;2.50;99.90
38860;DHT22;24609;48.316;16.174;2023-01-23T09:30:39;2.50;99.90
38860;DHT22;24609;48.316;16.174;2023-01-23T09:33:05;2.50;99.90
38860;DHT22;24609;48.316;16.174;2023-01-23T09:35:31;2.50;99.90
38860;DHT22;24609;48.316;16.174;2023-01-23T09:37:57;2.60;99.90
38860;DHT22;24609;48.316;16.174;2023-01-23T09:40:41;2.50;99.90
38860;DHT22;24609;48.316;16.174;2023-01-23T09:49:13;2.30;99.90
38860;DHT22;24609;48.316;16.174;2023-01-23T09:52:25;2.40;99.90
38860;DHT22;24609;48.316;16.174;2023-01-23T09:54:44;2.30;99.90
38860;DHT22;24609;48.316;16.174;2023-01-23T09:57:19;2.40;99.90
38860;DHT22;24609;48.316;16.174;2023-01-23T10:00:00;2.40;99.90
38860;DHT22;24609;48.316;16.174;2023-01-23T10:02:29;2.40;99.90
38860;DHT22;24609;48.316;16.174;2023-01-23T10:04:56;2.40;99.90
38860;DHT22;24609;48.316;16.174;2023-01-23T10:13:12;2.20;99.90
38860;DHT22;24609;48.316;16.174;2023-01-23T10:18:34;2.30;99.90
38860;DHT22;24609;48.316;16.174;2023-01-23T10:23:47;1.90;99.90
38860;DHT22;24609;48.316;16.174;2023-01-23T10:26:25;2.00;99.90
38860;DHT22;24609;48.316;16.174;2023-01-23T10:29:02;1.80;99.90
38860;DHT22;24609;48.316;16.174;2023-01-23T10:31:42;1.60;99.90
38860;DHT22;24609;48.316;16.174;2023-01-23T10:36:58;1.50;99.90
38860;DHT22;24609;48.316;16.174;2023-01-23T10:42:20;1.60;99.90
38860;DHT22;24609;48.316;16.174;2023-01-23T10:44:47;1.70;99.90
38860;DHT22;24609;48.316;16.174;2023-01-23T10:47:41;1.70;99.90
38860;DHT22;24609;48.316;16.174;2023-01-23T10:50:08;1.80;99.90
38860;DHT22;24609;48.316;16.174;2023-01-23T10:52:46;1.80;99.90
38860;DHT22;24609;48.316;16.174;2023-01-23T10:57:48;2.20;99.90
38860;DHT22;24609;48.316;16.174;2023-01-23T11:00:25;2.30;99.90
38860;DHT22;24609;48.316;16.174;2023-01-23T11:02:52;2.10;99.90
38860;DHT22;24609;48.316;16.174;2023-01-23T11:07:59;2.00;99.90
38860;DHT22;24609;48.316;16.174;2023-01-23T11:10:25;1.80;99.90
38860;DHT22;24609;48.316;16.174;2023-01-23T11:12:52;1.80;99.90
38860;DHT22;24609;48.316;16.174;2023-01-23T11:17:51;1.70;99.90
38860;DHT22;24609;48.316;16.174;2023-01-23T11:20:35;1.80;99.90
38860;DHT22;24609;48.316;16.174;2023-01-23T11:25:38;1.80;99.90
38860;DHT22;24609;48.316;16.174;2023-01-23T11:30:51;1.80;99.90
38860;DHT22;24609;48.316;16.174;2023-01-23T11:41:32;2.00;99.90
38860;DHT22;24609;48.316;16.174;2023-01-23T11:44:01;2.20;99.90
38860;DHT22;24609;48.316;16.174;2023-01-23T11:46:38;2.30;99.90
38860;DHT22;24609;48.316;16.174;2023-01-23T12:06:00;2.60;99.90
38860;DHT22;24609;48.316;16.174;2023-01-23T12:08:42;2.90;99.90
38860;DHT22;24609;48.316;16.174;2023-01-23T12:11:17;3.10;99.90
38860;DHT22;24609;48.316;16.174;2023-01-23T12:24:37;3.00;99.90
38860;DHT22;24609;48.316;16.174;2023-01-23T12:27:22;2.90;99.90
38860;DHT22;24609;48.316;16.174;2023-01-23T12:36:16;3.20;99.90
38860;DHT22;24609;48.316;16.174;2023-01-23T12:44:13;3.50;99.90
38860;DHT22;24609;48.316;16.174;2023-01-23T12:51:38;3.20;99.90
38860;DHT22;24609;48.316;16.174;2023-01-23T12:56:48;3.40;99.90
38860;DHT22;24609;48.316;16.174;2023-01-23T13:07:50;3.20;99.90
38860;DHT22;24609;48.316;16.174;2023-01-23T13:10:42;3.20;99.90
38860;DHT22;24609;48.316;16.174;2023-01-23T13:13:29;3.30;99.90
38860;DHT22;24609;48.316;16.174;2023-01-23T13:16:16;3.40;99.90
38860;DHT22;24609;48.316;16.174;2023-01-23T13:18:56;3.40;99.90
38860;DHT22;24609;48.316;16.174;2023-01-23T13:22:04;3.30;99.90
38860;DHT22;24609;48.316;16.174;2023-01-23T13:24:53;3.40;99.90
38860;DHT22;24609;48.316;16.174;2023-01-23T13:27:54;3.30;99.90
38860;DHT22;24609;48.316;16.174;2023-01-23T13:52:19;3.20;99.90
38860;DHT22;24609;48.316;16.174;2023-01-23T13:55:20;3.10;99.90
38860;DHT22;24609;48.316;16.174;2023-01-23T13:58:11;3.00;99.90
38860;DHT22;24609;48.316;16.174;2023-01-23T14:00:38;3.00;99.90
38860;DHT22;24609;48.316;16.174;2023-01-23T14:03:30;2.90;99.90
38860;DHT22;24609;48.316;16.174;2023-01-23T14:06:15;3.00;99.90
38860;DHT22;24609;48.316;16.174;2023-01-23T14:08:49;3.10;99.90
38860;DHT22;24609;48.316;16.174;2023-01-23T14:11:17;3.20;99.90
38860;DHT22;24609;48.316;16.174;2023-01-23T14:13:51;3.10;99.90
38860;DHT22;24609;48.316;16.174;2023-01-23T14:16:42;3.10;99.90
38860;DHT22;24609;48.316;16.174;2023-01-23T14:19:24;3.20;99.90
38860;DHT22;24609;48.316;16.174;2023-01-23T14:21:52;3.10;99.90
38860;DHT22;24609;48.316;16.174;2023-01-23T14:24:23;3.00;99.90
38860;DHT22;24609;48.316;16.174;2023-01-23T14:26:51;2.90;99.90
38860;DHT22;24609;48.316;16.174;2023-01-23T14:29:21;2.70;99.90
38860;DHT22;24609;48.316;16.174;2023-01-23T14:31:47;2.70;99.90
38860;DHT22;24609;48.316;16.174;2023-01-23T14:34:21;2.60;99.90
38860;DHT22;24609;48.316;16.174;2023-01-23T14:37:04;2.70;99.90
38860;DHT22;24609;48.316;16.174;2023-01-23T14:39:33;2.70;99.90
38860;DHT22;24609;48.316;16.174;2023-01-23T14:42:00;2.60;99.90
38860;DHT22;24609;48.316;16.174;2023-01-23T14:44:46;2.50;99.90
38860;DHT22;24609;48.316;16.174;2023-01-23T14:47:19;2.50;99.90
38860;DHT22;24609;48.316;16.174;2023-01-23T14:49:46;2.50;99.90
38860;DHT22;24609;48.316;16.174;2023-01-23T14:52:24;2.60;99.90
38860;DHT22;24609;48.316;16.174;2023-01-23T14:54:50;2.60;99.90
38860;DHT22;24609;48.316;16.174;2023-01-23T14:57:18;2.50;99.90
38860;DHT22;24609;48.316;16.174;2023-01-23T14:59:46;2.50;99.90
38860;DHT22;24609;48.316;16.174;2023-01-23T15:07:49;2.40;99.90
38860;DHT22;24609;48.316;16.174;2023-01-23T15:10:16;2.30;99.90
38860;DHT22;24609;48.316;16.174;2023-01-23T15:12:56;2.20;99.90
38860;DHT22;24609;48.316;16.174;2023-01-23T15:15:24;2.20;99.90
38860;DHT22;24609;48.316;16.174;2023-01-23T15:17:51;2.20;99.90
38860;DHT22;24609;48.316;16.174;2023-01-23T15:20:50;2.10;99.90
38860;DHT22;24609;48.316;16.174;2023-01-23T15:23:21;2.10;99.90
38860;DHT22;24609;48.316;16.174;2023-01-23T15:25:48;2.10;99.90
38860;DHT22;24609;48.316;16.174;2023-01-23T15:31:04;2.10;99.90
38860;DHT22;24609;48.316;16.174;2023-01-23T15:33:31;2.10;99.90
38860;DHT22;24609;48.316;16.174;2023-01-23T15:36:26;2.10;99.90
38860;DHT22;24609;48.316;16.174;2023-01-23T15:38:53;2.20;99.90
38860;DHT22;24609;48.316;16.174;2023-01-23T15:41:19;2.10;99.90
38860;DHT22;24609;48.316;16.174;2023-01-23T15:43:45;2.10;99.90
38860;DHT22;24609;48.316;16.174;2023-01-23T15:46:11;2.20;99.90
38860;DHT22;24609;48.316;16.174;2023-01-23T15:48:37;2.20;99.90
38860;DHT22;24609;48.316;16.174;2023-01-23T15:51:03;2.20;99.90
38860;DHT22;24609;48.316;16.174;2023-01-23T15:53:29;2.10;99.90
38860;DHT22;24609;48.316;16.174;2023-01-23T15:55:55;2.10;99.90
38860;DHT22;24609;48.316;16.174;2023-01-23T15:58:20;2.10;99.90
38860;DHT22;24609;48.316;16.174;2023-01-23T16:00:46;2.10;99.90
38860;DHT22;24609;48.316;16.174;2023-01-23T16:03:12;2.10;99.90
38860;DHT22;24609;48.316;16.174;2023-01-23T16:05:39;2.10;99.90
38860;DHT22;24609;48.316;16.174;2023-01-23T16:08:17;2.10;99.90
38860;DHT22;24609;48.316;16.174;2023-01-23T16:10:44;2.10;99.90
38860;DHT22;24609;48.316;16.174;2023-01-23T16:13:12;2.10;99.90
38860;DHT22;24609;48.316;16.174;2023-01-23T16:15:38;2.20;99.90
38860;DHT22;24609;48.316;16.174;2023-01-23T16:18:04;2.20;99.90
38860;DHT22;24609;48.316;16.174;2023-01-23T16:20:35;2.20;99.90
38860;DHT22;24609;48.316;16.174;2023-01-23T16:23:23;2.20;99.90
38860;DHT22;24609;48.316;16.174;2023-01-23T16:25:51;2.30;99.90
38860;DHT22;24609;48.316;16.174;2023-01-23T16:28:20;2.30;99.90
38860;DHT22;24609;48.316;16.174;2023-01-23T16:30:47;2.30;99.90
38860;DHT22;24609;48.316;16.174;2023-01-23T16:33:13;2.30;99.90
38860;DHT22;24609;48.316;16.174;2023-01-23T16:35:40;2.30;99.90
38860;DHT22;24609;48.316;16.174;2023-01-23T16:38:06;2.30;99.90
38860;DHT22;24609;48.316;16.174;2023-01-23T16:40:32;2.20;99.90
38860;DHT22;24609;48.316;16.174;2023-01-23T16:42:58;2.30;99.90
38860;DHT22;24609;48.316;16.174;2023-01-23T16:45:28;2.30;99.90
38860;DHT22;24609;48.316;16.174;2023-01-23T16:47:54;2.20;99.90
38860;DHT22;24609;48.316;16.174;2023-01-23T16:52:54;2.20;99.90
38860;DHT22;24609;48.316;16.174;2023-01-23T16:55:22;2.20;99.90
38860;DHT22;24609;48.316;16.174;2023-01-23T16:57:53;2.30;99.90
38860;DHT22;24609;48.316;16.174;2023-01-23T17:00:21;2.30;99.90
38860;DHT22;24609;48.316;16.174;2023-01-23T17:02:50;2.30;99.90
38860;DHT22;24609;48.316;16.174;2023-01-23T17:05:17;2.30;99.90
38860;DHT22;24609;48.316;16.174;2023-01-23T17:07:44;2.20;99.90
38860;DHT22;24609;48.316;16.174;2023-01-23T17:10:20;2.30;99.90
38860;DHT22;24609;48.316;16.174;2023-01-23T17:12:49;2.30;99.90
38860;DHT22;24609;48.316;16.174;2023-01-23T17:15:29;2.20;99.90
38860;DHT22;24609;48.316;16.174;2023-01-23T17:17:57;2.20;99.90
38860;DHT22;24609;48.316;16.174;2023-01-23T17:20:27;2.20;99.90
38860;DHT22;24609;48.316;16.174;2023-01-23T17:22:55;2.20;99.90
38860;DHT22;24609;48.316;16.174;2023-01-23T17:25:23;2.30;99.90
38860;DHT22;24609;48.316;16.174;2023-01-23T17:27:50;2.30;99.90
38860;DHT22;24609;48.316;16.174;2023-01-23T17:30:19;2.30;99.90
38860;DHT22;24609;48.316;16.174;2023-01-23T17:32:47;2.30;99.90
38860;DHT22;24609;48.316;16.174;2023-01-23T17:35:27;2.30;99.90
38860;DHT22;24609;48.316;16.174;2023-01-23T17:37:54;2.30;99.90
38860;DHT22;24609;48.316;16.174;2023-01-23T17:40:24;2.20;99.90
38860;DHT22;24609;48.316;16.174;2023-01-23T17:42:50;2.20;99.90
38860;DHT22;24609;48.316;16.174;2023-01-23T17:45:17;2.20;99.90
38860;DHT22;24609;48.316;16.174;2023-01-23T17:47:52;2.20;99.90
38860;DHT22;24609;48.316;16.174;2023-01-23T17:50:23;2.10;99.90
38860;DHT22;24609;48.316;16.174;2023-01-23T17:52:50;2.20;99.90
38860;DHT22;24609;48.316;16.174;2023-01-23T17:55:18;2.20;99.90
38860;DHT22;24609;48.316;16.174;2023-01-23T17:57:45;2.20;99.90
38860;DHT22;24609;48.316;16.174;2023-01-23T18:00:12;2.20;99.90
38860;DHT22;24609;48.316;16.174;2023-01-23T18:02:39;2.20;99.90